Time;durP1;ratioP1;P1;durP2;ratioP2;P2;SDS_P1;SDS_P2;PMS_P1;PMS_P2;Temp;Humidity;BMP_temperature;BMP_pressure;BME280_temperature;BME280_humidity;BME280_pressure;Samples;Min_cycle;Max_cycle;Signal;HPM_P1;HPM_P2
2023/03/31 00:00:26;;;;;;;7.77;1.90;;;12.90;99.00;;;;;;5089799;28;20419;-69
2023/03/31 00:02:52;;;;;;;7.67;1.77;;;12.90;99.50;;;;;;5089754;28;20519;-69
2023/03/31 00:05:20;;;;;;;6.43;1.83;;;12.80;99.90;;;;;;5089660;28;20424;-69
2023/03/31 00:07:48;;;;;;;3.00;1.70;;;12.80;99.60;;;;;;5090021;28;20453;-68
2023/03/31 00:10:14;;;;;;;13.90;2.03;;;12.80;99.60;;;;;;5070553;28;20430;-69
2023/03/31 00:12:39;;;;;;;8.37;2.63;;;12.70;99.90;;;;;;5087995;28;21105;-69
2023/03/31 00:15:05;;;;;;;5.87;2.17;;;12.80;99.70;;;;;;5089776;28;20496;-69
2023/03/31 00:17:32;;;;;;;6.33;1.93;;;12.70;99.70;;;;;;5088004;28;20616;-69
2023/03/31 00:19:59;;;;;;;5.37;2.00;;;12.70;99.90;;;;;;5089863;28;20430;-69
2023/03/31 00:22:29;;;;;;;5.33;2.17;;;12.70;99.90;;;;;;5087980;28;20567;-70
2023/03/31 00:24:54;;;;;;;7.77;2.40;;;12.70;99.90;;;;;;5089345;28;20442;-70
2023/03/31 00:27:20;;;;;;;3.03;1.57;;;12.60;99.90;;;;;;5089261;28;20423;-68
2023/03/31 00:29:46;;;;;;;5.80;1.67;;;12.70;99.90;;;;;;5088959;28;20181;-69
2023/03/31 00:32:13;;;;;;;10.13;2.40;;;12.70;99.90;;;;;;5087558;28;20983;-69
2023/03/31 00:34:39;;;;;;;6.93;1.83;;;12.70;99.90;;;;;;5087574;28;20644;-68
2023/03/31 00:37:08;;;;;;;10.50;2.10;;;12.60;99.70;;;;;;5088947;28;20479;-68
2023/03/31 00:39:35;;;;;;;13.60;2.43;;;12.60;98.90;;;;;;5089095;28;20412;-69
2023/03/31 00:42:02;;;;;;;5.07;1.80;;;12.80;99.10;;;;;;5088928;28;20435;-69
2023/03/31 00:44:29;;;;;;;5.30;1.90;;;12.80;98.90;;;;;;5088857;28;20411;-68
2023/03/31 00:47:21;;;;;;;7.47;2.00;;;12.80;98.70;;;;;;5087560;28;20429;-69
2023/03/31 00:49:50;;;;;;;12.23;2.13;;;12.80;98.10;;;;;;5089038;28;20439;-69
2023/03/31 00:52:29;;;;;;;6.97;1.93;;;12.80;98.50;;;;;;5087353;28;20466;-69
2023/03/31 00:55:01;;;;;;;5.23;1.70;;;12.90;98.20;;;;;;5088770;28;20435;-69
2023/03/31 00:57:28;;;;;;;8.40;2.03;;;12.90;98.00;;;;;;5088719;28;21053;-70
2023/03/31 01:00:00;;;;;;;9.33;2.67;;;12.90;97.60;;;;;;5088621;28;20420;-69
2023/03/31 01:02:27;;;;;;;4.93;2.07;;;12.90;97.30;;;;;;5088550;28;20437;-69
2023/03/31 01:05:00;;;;;;;7.63;1.80;;;13.00;97.20;;;;;;5087182;28;20518;-69
2023/03/31 01:07:34;;;;;;;8.17;2.47;;;13.00;97.30;;;;;;5087345;28;21209;-69
2023/03/31 01:10:03;;;;;;;11.47;1.80;;;13.00;97.00;;;;;;5088656;28;20497;-69
2023/03/31 01:12:32;;;;;;;13.13;2.47;;;13.00;98.00;;;;;;5088743;28;20494;-69
2023/03/31 01:15:00;;;;;;;13.53;2.47;;;13.10;97.00;;;;;;5088528;28;20847;-69
2023/03/31 01:17:28;;;;;;;9.90;2.43;;;13.00;97.30;;;;;;5088584;28;20702;-69
2023/03/31 01:20:25;;;;;;;5.50;2.20;;;13.00;96.30;;;;;;5088561;28;20420;-69
2023/03/31 01:23:21;;;;;;;12.13;2.30;;;13.10;96.30;;;;;;5090772;28;20424;-69
2023/03/31 01:26:00;;;;;;;5.53;2.80;;;13.00;96.50;;;;;;5092669;28;20443;-69
2023/03/31 01:28:37;;;;;;;11.30;2.40;;;13.00;96.30;;;;;;5092533;28;20824;-69
2023/03/31 01:31:09;;;;;;;7.10;1.97;;;13.00;96.10;;;;;;5092437;28;20939;-69
2023/03/31 01:33:40;;;;;;;5.67;1.80;;;13.00;96.50;;;;;;5092754;28;20414;-69
2023/03/31 01:36:23;;;;;;;6.67;2.03;;;13.10;95.80;;;;;;5092519;28;21090;-69
2023/03/31 01:39:10;;;;;;;9.73;2.47;;;13.00;96.80;;;;;;5090842;28;20955;-69
2023/03/31 01:41:58;;;;;;;4.40;2.20;;;13.00;96.30;;;;;;5092270;28;20432;-69
2023/03/31 01:44:37;;;;;;;9.97;1.87;;;13.00;96.20;;;;;;5092464;28;20778;-70
2023/03/31 01:47:25;;;;;;;12.37;2.47;;;13.00;96.50;;;;;;5090699;28;20415;-68
2023/03/31 01:50:02;;;;;;;3.73;1.73;;;12.90;96.40;;;;;;5092202;28;20768;-69
2023/03/31 01:52:44;;;;;;;6.10;1.70;;;12.90;96.90;;;;;;5092178;28;20442;-69
2023/03/31 01:55:25;;;;;;;10.10;2.17;;;12.90;96.10;;;;;;5092353;28;20930;-69
2023/03/31 01:58:01;;;;;;;6.63;2.37;;;12.90;97.10;;;;;;5092422;28;20430;-69
2023/03/31 02:00:32;;;;;;;9.50;2.20;;;12.90;98.10;;;;;;5092251;28;20404;-69
2023/03/31 02:03:13;;;;;;;9.83;1.93;;;12.70;99.90;;;;;;5091954;28;20890;-68
2023/03/31 02:05:55;;;;;;;12.67;2.43;;;12.60;99.90;;;;;;5092065;28;20407;-69
2023/03/31 02:08:30;;;;;;;7.47;2.27;;;12.50;99.90;;;;;;5092374;28;20410;-69
2023/03/31 02:10:57;;;;;;;7.77;2.70;;;12.40;99.90;;;;;;5090732;28;20445;-69
2023/03/31 02:13:26;;;;;;;6.80;2.60;;;12.30;99.90;;;;;;5092209;28;20409;-68
2023/03/31 02:15:58;;;;;;;8.43;2.20;;;12.20;99.90;;;;;;5092320;28;20473;-68
2023/03/31 02:18:29;;;;;;;8.03;2.37;;;12.20;99.90;;;;;;5092289;28;20837;-68
2023/03/31 02:20:58;;;;;;;4.57;2.10;;;12.20;99.90;;;;;;5092285;28;20806;-68
2023/03/31 02:23:28;;;;;;;5.37;2.13;;;12.10;99.90;;;;;;5092108;28;20418;-68
2023/03/31 02:26:07;;;;;;;7.03;2.43;;;12.10;99.90;;;;;;5092165;28;20431;-68
2023/03/31 02:28:33;;;;;;;6.03;2.77;;;11.90;99.90;;;;;;5091694;28;20429;-68
2023/03/31 02:31:13;;;;;;;7.57;3.10;;;11.80;99.90;;;;;;5090210;28;20482;-68
2023/03/31 02:33:38;;;;;;;8.77;2.73;;;11.70;99.90;;;;;;5090306;28;20438;-69
2023/03/31 02:36:05;;;;;;;7.90;2.90;;;11.50;99.90;;;;;;5091331;28;20886;-68
2023/03/31 02:38:38;;;;;;;7.30;2.50;;;11.50;99.90;;;;;;5091128;28;20192;-69
2023/03/31 02:41:04;;;;;;;6.10;3.17;;;11.30;99.90;;;;;;5091235;28;20441;-69
2023/03/31 02:43:30;;;;;;;7.23;2.70;;;11.30;99.90;;;;;;5091011;28;20428;-68
2023/03/31 02:45:55;;;;;;;4.33;2.40;;;11.20;99.90;;;;;;5089699;28;20798;-68
2023/03/31 02:48:26;;;;;;;9.87;3.47;;;11.20;99.90;;;;;;5091042;28;20198;-69
2023/03/31 02:51:08;;;;;;;8.23;2.93;;;11.20;99.90;;;;;;5091058;28;20198;-69
2023/03/31 02:53:55;;;;;;;5.67;2.93;;;11.10;99.90;;;;;;5090971;28;20415;-69
2023/03/31 02:57:05;;;;;;;6.63;2.83;;;11.10;99.90;;;;;;5091011;28;20459;-68
2023/03/31 03:00:03;;;;;;;11.07;3.17;;;11.10;99.90;;;;;;5089354;28;20554;-68
2023/03/31 03:02:50;;;;;;;13.53;6.07;;;10.90;99.90;;;;;;5090774;28;20916;-69
2023/03/31 03:05:44;;;;;;;14.27;3.60;;;10.90;99.90;;;;;;5091022;28;20425;-69
2023/03/31 03:08:47;;;;;;;10.17;4.70;;;10.90;99.90;;;;;;5091081;28;21257;-69
2023/03/31 03:11:20;;;;;;;9.90;3.60;;;10.90;99.90;;;;;;5006648;28;20549;-70
2023/03/31 03:14:04;;;;;;;9.23;3.50;;;10.80;99.90;;;;;;5089795;28;20437;-68
2023/03/31 03:16:39;;;;;;;14.03;3.73;;;10.70;99.90;;;;;;5091176;28;20512;-69
2023/03/31 03:19:06;;;;;;;8.87;2.67;;;10.60;99.90;;;;;;5090901;28;20483;-69
2023/03/31 03:21:32;;;;;;;5.97;3.07;;;10.50;99.90;;;;;;5090534;28;20426;-69
2023/03/31 03:23:59;;;;;;;8.93;3.13;;;10.50;99.90;;;;;;5090679;28;20410;-69
2023/03/31 03:26:26;;;;;;;8.30;3.20;;;10.40;99.90;;;;;;5088933;28;20936;-69
2023/03/31 03:28:56;;;;;;;10.47;2.57;;;10.40;99.90;;;;;;5088949;28;20467;-69
2023/03/31 03:31:22;;;;;;;14.67;3.20;;;10.30;99.90;;;;;;5090273;28;20433;-69
2023/03/31 03:33:51;;;;;;;8.73;2.93;;;10.30;99.90;;;;;;5088970;28;20417;-69
2023/03/31 03:36:18;;;;;;;6.83;2.57;;;10.30;99.90;;;;;;5088718;28;20550;-69
2023/03/31 03:38:44;;;;;;;6.40;2.90;;;10.30;99.90;;;;;;5090098;28;20435;-69
2023/03/31 03:41:09;;;;;;;6.33;3.20;;;10.30;99.90;;;;;;5089853;28;20453;-68
2023/03/31 03:43:35;;;;;;;7.10;3.27;;;10.40;99.90;;;;;;5090027;28;20454;-69
2023/03/31 03:46:00;;;;;;;11.50;3.20;;;10.60;99.90;;;;;;5089873;28;20194;-69
2023/03/31 03:48:26;;;;;;;8.23;2.70;;;10.70;99.90;;;;;;5088574;28;20202;-69
2023/03/31 03:50:53;;;;;;;9.07;3.40;;;10.70;99.90;;;;;;5089813;28;20310;-69
2023/03/31 03:53:19;;;;;;;10.60;3.57;;;10.70;99.90;;;;;;5089850;28;20227;-69
2023/03/31 03:55:47;;;;;;;8.43;3.40;;;10.70;99.90;;;;;;5088154;28;20513;-69
2023/03/31 03:58:14;;;;;;;5.33;3.17;;;10.80;99.90;;;;;;5088594;28;20486;-69
2023/03/31 04:00:40;;;;;;;7.73;3.83;;;10.80;99.90;;;;;;5089497;28;20410;-69
2023/03/31 04:03:06;;;;;;;8.00;3.13;;;10.70;99.90;;;;;;5087910;28;21015;-69
2023/03/31 04:05:31;;;;;;;5.33;2.77;;;10.70;99.90;;;;;;5089525;28;20182;-69
2023/03/31 04:07:57;;;;;;;9.17;3.00;;;10.80;99.90;;;;;;5088033;28;20232;-69
2023/03/31 04:10:22;;;;;;;9.80;3.30;;;10.60;99.90;;;;;;5088106;28;20178;-69
2023/03/31 04:12:48;;;;;;;7.23;2.70;;;10.70;99.90;;;;;;5088046;28;20227;-69
2023/03/31 04:15:14;;;;;;;9.50;3.50;;;10.70;99.90;;;;;;5089351;28;20183;-68
2023/03/31 04:17:40;;;;;;;12.17;3.67;;;10.70;99.90;;;;;;5089330;28;20206;-68
2023/03/31 04:20:08;;;;;;;8.63;4.00;;;10.60;99.90;;;;;;5089112;28;20414;-69
2023/03/31 04:22:39;;;;;;;8.67;4.20;;;10.50;99.90;;;;;;5089191;28;20358;-69
2023/03/31 04:25:15;;;;;;;12.33;4.73;;;10.40;99.90;;;;;;5089275;28;20469;-69
2023/03/31 04:27:49;;;;;;;8.70;3.77;;;10.50;99.90;;;;;;5089097;28;20427;-70
2023/03/31 04:30:22;;;;;;;7.90;3.00;;;10.60;99.90;;;;;;5087709;28;20909;-69
2023/03/31 04:32:56;;;;;;;11.73;3.80;;;10.60;99.90;;;;;;5087547;28;20441;-68
2023/03/31 04:35:23;;;;;;;7.00;3.77;;;10.50;99.90;;;;;;5087733;28;20776;-69
2023/03/31 04:37:51;;;;;;;9.43;2.97;;;10.50;99.90;;;;;;5085909;28;20470;-68
2023/03/31 04:40:17;;;;;;;5.47;2.83;;;10.40;99.90;;;;;;5087957;28;20416;-69
2023/03/31 04:42:44;;;;;;;5.13;3.10;;;10.40;99.90;;;;;;5087220;28;20446;-68
2023/03/31 04:45:11;;;;;;;17.00;3.53;;;10.40;99.90;;;;;;5087569;28;20420;-70
2023/03/31 04:47:37;;;;;;;6.03;3.30;;;10.40;99.90;;;;;;5087827;28;20417;-69
2023/03/31 04:50:03;;;;;;;7.47;3.00;;;10.40;99.90;;;;;;5087958;28;20475;-69
2023/03/31 04:52:29;;;;;;;7.97;3.37;;;10.40;99.90;;;;;;5086407;28;20881;-69
2023/03/31 04:54:54;;;;;;;10.50;4.20;;;10.30;99.90;;;;;;5088075;28;20413;-70
2023/03/31 04:57:20;;;;;;;9.23;3.10;;;10.40;99.90;;;;;;5087414;28;20635;-69
2023/03/31 04:59:46;;;;;;;5.43;3.20;;;10.20;99.90;;;;;;5087907;28;20179;-69
2023/03/31 05:02:11;;;;;;;9.63;3.60;;;10.20;99.90;;;;;;5087865;28;20698;-69
2023/03/31 05:04:37;;;;;;;8.63;3.07;;;10.20;99.90;;;;;;5087802;28;20186;-69
2023/03/31 05:07:03;;;;;;;10.40;3.30;;;10.30;99.90;;;;;;5069529;28;20196;-69
2023/03/31 05:09:29;;;;;;;5.20;3.00;;;10.30;99.90;;;;;;5087463;28;20426;-69
2023/03/31 05:11:56;;;;;;;8.90;3.90;;;10.30;99.90;;;;;;5087052;28;20198;-69
2023/03/31 05:14:21;;;;;;;6.33;3.70;;;10.40;99.90;;;;;;5087187;28;20265;-69
2023/03/31 05:16:47;;;;;;;9.50;4.20;;;10.40;99.90;;;;;;5085627;28;20544;-69
2023/03/31 05:19:12;;;;;;;9.43;3.70;;;10.30;99.90;;;;;;5087122;28;20232;-69
2023/03/31 05:21:38;;;;;;;8.97;3.50;;;10.30;99.90;;;;;;5085644;28;20232;-70
2023/03/31 05:24:04;;;;;;;6.70;3.83;;;10.30;99.90;;;;;;5087123;28;20213;-69
2023/03/31 05:26:30;;;;;;;11.40;4.50;;;10.20;99.90;;;;;;5086982;28;20701;-69
2023/03/31 05:28:55;;;;;;;13.03;3.53;;;10.20;99.90;;;;;;5088358;28;20184;-70
2023/03/31 05:31:21;;;;;;;15.50;5.37;;;10.20;99.90;;;;;;5087628;28;20443;-69
2023/03/31 05:33:47;;;;;;;14.20;4.57;;;10.20;99.90;;;;;;5087571;28;20184;-69
2023/03/31 05:36:15;;;;;;;8.27;4.30;;;10.20;99.90;;;;;;5087755;28;20457;-69
2023/03/31 05:38:41;;;;;;;15.37;4.50;;;10.30;99.90;;;;;;5087484;28;20306;-69
2023/03/31 05:41:08;;;;;;;7.23;4.17;;;10.30;99.90;;;;;;5087663;28;20872;-69
2023/03/31 05:43:35;;;;;;;8.47;3.70;;;10.30;99.90;;;;;;5086315;28;20492;-70
2023/03/31 05:46:01;;;;;;;8.00;4.07;;;10.20;99.90;;;;;;5087538;28;20438;-68
2023/03/31 05:48:26;;;;;;;12.67;4.30;;;10.20;99.90;;;;;;5087349;28;20433;-69
2023/03/31 05:50:58;;;;;;;11.70;4.53;;;10.20;99.90;;;;;;5086931;28;20441;-69
2023/03/31 05:53:25;;;;;;;12.63;4.87;;;10.10;99.90;;;;;;5087059;28;20182;-69
2023/03/31 05:55:57;;;;;;;8.40;4.03;;;10.10;99.90;;;;;;5086591;28;20420;-69
2023/03/31 05:58:23;;;;;;;12.57;5.40;;;10.10;99.90;;;;;;5086780;28;20519;-69
2023/03/31 06:00:48;;;;;;;8.17;4.50;;;10.10;99.90;;;;;;5086597;28;21028;-69
2023/03/31 06:03:14;;;;;;;10.73;4.83;;;10.20;99.90;;;;;;5085439;28;20200;-69
2023/03/31 06:05:49;;;;;;;10.90;4.60;;;10.20;99.90;;;;;;5068502;28;20278;-69
2023/03/31 06:08:14;;;;;;;12.07;4.13;;;10.20;99.90;;;;;;5088010;28;20187;-69
2023/03/31 06:10:41;;;;;;;8.83;4.37;;;10.30;99.90;;;;;;5089678;28;20519;-69
2023/03/31 06:13:07;;;;;;;8.10;4.40;;;10.30;99.90;;;;;;5091008;28;20186;-69
2023/03/31 06:15:32;;;;;;;9.10;4.73;;;10.30;99.90;;;;;;5090673;28;20448;-69
2023/03/31 06:17:58;;;;;;;8.60;4.40;;;10.30;99.90;;;;;;5089398;28;20215;-69
2023/03/31 06:20:24;;;;;;;11.53;5.03;;;10.30;99.90;;;;;;5089927;28;20186;-69
2023/03/31 06:22:49;;;;;;;9.70;4.40;;;10.30;99.90;;;;;;5091022;28;20229;-69
2023/03/31 06:25:15;;;;;;;12.30;5.27;;;10.30;99.90;;;;;;5089173;28;20193;-69
2023/03/31 06:27:40;;;;;;;9.90;4.27;;;10.30;99.90;;;;;;5090861;28;20244;-69
2023/03/31 06:30:07;;;;;;;8.83;4.70;;;10.30;99.90;;;;;;5090785;28;20184;-69
2023/03/31 06:32:32;;;;;;;11.50;4.50;;;10.30;99.90;;;;;;5090038;28;20214;-68
2023/03/31 06:34:58;;;;;;;13.07;5.17;;;10.40;99.90;;;;;;5089936;28;20496;-68
2023/03/31 06:37:23;;;;;;;13.47;5.30;;;10.40;99.90;;;;;;5088286;28;20229;-69
2023/03/31 06:39:49;;;;;;;11.83;4.90;;;10.40;99.90;;;;;;5088492;28;20189;-69
2023/03/31 06:42:15;;;;;;;11.17;4.97;;;10.40;99.90;;;;;;5089779;28;20267;-69
2023/03/31 06:44:40;;;;;;;13.90;5.37;;;10.40;99.90;;;;;;5090000;28;20188;-69
2023/03/31 06:47:06;;;;;;;12.20;5.50;;;10.30;99.90;;;;;;5088777;28;20915;-69
2023/03/31 06:49:31;;;;;;;12.53;4.00;;;10.40;99.90;;;;;;5090104;28;20181;-68
2023/03/31 06:51:57;;;;;;;10.37;4.53;;;10.40;99.90;;;;;;5090268;28;20752;-69
2023/03/31 06:54:22;;;;;;;10.27;5.57;;;10.40;99.90;;;;;;5090134;28;20188;-68
2023/03/31 06:56:48;;;;;;;13.17;8.03;;;10.40;99.90;;;;;;5090161;28;20215;-68
2023/03/31 06:59:14;;;;;;;10.03;5.30;;;10.40;99.90;;;;;;5090322;28;20187;-69
2023/03/31 07:01:41;;;;;;;11.87;4.63;;;10.50;99.90;;;;;;5089878;28;20199;-69
2023/03/31 07:04:06;;;;;;;67.67;50.87;;;10.50;99.90;;;;;;5090037;28;20267;-69
2023/03/31 07:06:33;;;;;;;163.70;114.87;;;10.40;99.90;;;;;;5088064;28;20526;-69
2023/03/31 07:08:58;;;;;;;139.60;89.87;;;10.30;99.90;;;;;;5089567;28;20179;-68
2023/03/31 07:11:24;;;;;;;26.57;16.60;;;10.30;99.90;;;;;;5089596;28;20469;-68
2023/03/31 07:13:50;;;;;;;69.17;37.57;;;10.20;99.90;;;;;;5089576;28;20190;-68
2023/03/31 07:16:15;;;;;;;22.00;9.00;;;10.20;99.90;;;;;;5089152;28;20668;-68
2023/03/31 07:18:41;;;;;;;7.07;4.20;;;10.10;99.90;;;;;;5089381;28;20186;-68
2023/03/31 07:21:07;;;;;;;3.40;3.10;;;10.10;99.90;;;;;;5088529;28;20227;-68
2023/03/31 07:23:33;;;;;;;5.20;3.50;;;9.90;99.90;;;;;;5089054;28;20185;-68
2023/03/31 07:26:01;;;;;;;364.20;139.63;;;9.90;99.90;;;;;;5088890;28;20819;-68
2023/03/31 07:28:27;;;;;;;7.63;3.87;;;9.90;99.90;;;;;;5089136;28;20419;-69
2023/03/31 07:30:53;;;;;;;380.80;137.50;;;9.90;99.90;;;;;;5088063;28;20437;-68
2023/03/31 07:33:19;;;;;;;7.13;3.60;;;9.90;99.90;;;;;;5089532;28;20417;-68
2023/03/31 07:35:44;;;;;;;6.20;2.77;;;9.70;99.90;;;;;;5088013;28;20191;-67
2023/03/31 07:38:11;;;;;;;5.87;2.73;;;9.90;99.90;;;;;;5089441;28;20233;-68
2023/03/31 07:40:37;;;;;;;28.17;13.97;;;9.80;99.90;;;;;;5087827;28;20257;-67
2023/03/31 07:43:04;;;;;;;3.93;2.40;;;9.80;99.90;;;;;;5088956;28;20408;-68
2023/03/31 07:45:29;;;;;;;4.10;3.20;;;9.80;99.90;;;;;;5088830;28;21055;-68
2023/03/31 07:47:55;;;;;;;21.73;11.43;;;9.90;99.90;;;;;;5087262;28;20428;-68
2023/03/31 07:50:22;;;;;;;5.17;4.67;;;10.00;99.90;;;;;;5088641;28;20228;-69
2023/03/31 07:52:48;;;;;;;16.83;13.60;;;10.10;99.90;;;;;;5088494;28;20206;-68
2023/03/31 07:55:14;;;;;;;6.43;2.90;;;10.20;99.90;;;;;;5088460;28;20560;-68
2023/03/31 07:57:40;;;;;;;96.67;41.67;;;10.30;99.90;;;;;;5088349;28;20203;-69
2023/03/31 08:00:11;;;;;;;393.60;160.00;;;10.30;99.90;;;;;;5088253;28;20512;-69
2023/03/31 08:02:37;;;;;;;2.90;1.87;;;10.30;99.90;;;;;;5088264;28;20440;-68
2023/03/31 08:05:04;;;;;;;312.00;142.10;;;10.40;99.90;;;;;;5088218;28;20409;-70
2023/03/31 08:07:34;;;;;;;86.90;52.67;;;10.60;99.90;;;;;;5086942;28;21008;-69
2023/03/31 08:09:59;;;;;;;504.10;383.60;;;10.70;99.90;;;;;;5086650;28;20420;-69
2023/03/31 08:12:25;;;;;;;67.67;38.90;;;11.00;99.90;;;;;;5088103;28;21024;-68
2023/03/31 08:14:51;;;;;;;1018.47;572.07;;;11.10;99.90;;;;;;5087936;28;20183;-68
2023/03/31 08:17:16;;;;;;;6.57;3.77;;;11.10;99.90;;;;;;5088163;28;20209;-69
2023/03/31 08:19:42;;;;;;;20.80;8.10;;;11.30;99.90;;;;;;5087972;28;20176;-69
2023/03/31 08:22:07;;;;;;;1.70;1.07;;;11.60;99.90;;;;;;5087828;28;20285;-68
2023/03/31 08:24:33;;;;;;;4.83;0.63;;;11.80;99.90;;;;;;5086531;28;20247;-68
2023/03/31 08:26:59;;;;;;;3.63;0.50;;;12.10;99.90;;;;;;5087897;28;20199;-68
2023/03/31 08:29:24;;;;;;;1.90;1.60;;;12.30;99.90;;;;;;5069297;28;20189;-68
2023/03/31 08:31:50;;;;;;;1.57;0.80;;;12.70;99.90;;;;;;5085494;28;20592;-68
2023/03/31 08:34:16;;;;;;;1.10;0.70;;;12.70;99.90;;;;;;5086345;28;20213;-70
2023/03/31 08:36:41;;;;;;;1190.63;610.97;;;13.00;99.90;;;;;;5087604;28;20207;-69
2023/03/31 08:39:07;;;;;;;110.40;97.50;;;13.40;99.90;;;;;;5085912;28;20208;-69
2023/03/31 08:41:41;;;;;;;579.60;494.47;;;13.50;99.90;;;;;;5087742;28;20213;-69
2023/03/31 08:44:21;;;;;;;5.30;4.90;;;13.90;99.90;;;;;;5088501;28;20521;-69
2023/03/31 08:46:51;;;;;;;4.83;4.37;;;14.10;99.90;;;;;;5087624;28;20407;-69
2023/03/31 08:49:19;;;;;;;1.67;1.03;;;14.40;99.90;;;;;;5087460;28;20435;-69
2023/03/31 08:51:51;;;;;;;124.53;75.93;;;14.60;99.90;;;;;;5087377;28;20433;-69
2023/03/31 08:54:38;;;;;;;1.50;1.20;;;14.80;99.90;;;;;;5087572;28;20434;-70
2023/03/31 08:57:33;;;;;;;1.60;0.77;;;15.10;99.90;;;;;;5087264;28;20463;-69
2023/03/31 09:00:05;;;;;;;4.00;1.17;;;15.30;99.90;;;;;;5048773;28;20426;-69
2023/03/31 09:02:48;;;;;;;9.07;8.27;;;15.20;99.90;;;;;;5087451;28;20858;-69
2023/03/31 09:05:30;;;;;;;1.27;0.77;;;15.80;99.90;;;;;;5087354;28;20440;-69
2023/03/31 09:08:05;;;;;;;2.70;2.23;;;15.80;99.90;;;;;;5087519;28;20407;-70
2023/03/31 09:10:42;;;;;;;5.20;1.37;;;16.10;99.90;;;;;;5087046;28;20504;-69
2023/03/31 09:13:37;;;;;;;4.77;2.40;;;16.00;97.60;;;;;;5087200;28;20411;-69
2023/03/31 09:16:15;;;;;;;1.10;0.70;;;15.70;99.90;;;;;;5087116;28;20467;-68
2023/03/31 09:18:48;;;;;;;3.13;2.90;;;15.60;98.20;;;;;;5087068;28;20418;-69
2023/03/31 09:21:35;;;;;;;11.63;10.50;;;15.80;99.90;;;;;;5087204;28;20975;-70
2023/03/31 09:24:26;;;;;;;2.03;1.30;;;15.90;99.90;;;;;;5087354;28;20400;-69
2023/03/31 09:26:59;;;;;;;11.70;10.03;;;15.80;99.40;;;;;;5085621;28;20416;-71
2023/03/31 09:29:33;;;;;;;1.80;1.03;;;16.00;99.50;;;;;;5087131;28;20861;-70
2023/03/31 09:32:29;;;;;;;2.17;0.90;;;16.40;99.90;;;;;;5087045;28;20474;-69
2023/03/31 09:35:20;;;;;;;5.87;1.00;;;16.70;98.10;;;;;;5070135;28;20432;-69
2023/03/31 09:37:46;;;;;;;3.53;0.77;;;16.20;95.30;;;;;;5072178;28;20477;-69
2023/03/31 09:40:20;;;;;;;4.37;1.20;;;15.80;94.60;;;;;;5087796;28;20412;-69
2023/03/31 09:43:07;;;;;;;1.63;0.73;;;15.70;96.40;;;;;;5088253;28;20862;-69
2023/03/31 09:45:34;;;;;;;1.80;1.20;;;15.90;95.40;;;;;;5091482;28;20470;-69
2023/03/31 09:48:09;;;;;;;2.80;0.77;;;15.90;93.80;;;;;;5091357;28;20423;-69
2023/03/31 09:50:44;;;;;;;3.10;0.90;;;16.00;94.40;;;;;;5090175;28;20420;-69
2023/03/31 09:53:20;;;;;;;2.40;0.87;;;16.70;92.90;;;;;;5091669;28;20416;-71
2023/03/31 09:55:51;;;;;;;2.77;0.83;;;16.80;90.80;;;;;;5091650;28;20424;-69
2023/03/31 09:58:17;;;;;;;5.63;2.03;;;16.30;92.00;;;;;;5091543;28;20787;-69
2023/03/31 10:01:05;;;;;;;3.87;1.00;;;16.20;93.70;;;;;;5091149;28;20410;-69
2023/03/31 10:03:35;;;;;;;3.93;1.03;;;16.20;93.80;;;;;;5089723;28;20270;-69
2023/03/31 10:06:13;;;;;;;4.83;1.20;;;16.00;92.70;;;;;;5090846;28;20421;-69
2023/03/31 10:08:50;;;;;;;2.27;2.10;;;15.90;93.00;;;;;;5091036;28;20424;-69
2023/03/31 10:11:16;;;;;;;2.90;1.30;;;15.80;93.20;;;;;;5090789;28;20444;-69
2023/03/31 10:13:49;;;;;;;2.47;1.00;;;16.00;93.40;;;;;;5090555;28;20412;-69
2023/03/31 10:16:28;;;;;;;2.67;1.30;;;15.60;91.60;;;;;;5090595;28;20570;-68
2023/03/31 10:18:56;;;;;;;5.60;1.13;;;15.30;90.50;;;;;;5090527;28;20408;-70
2023/03/31 10:21:25;;;;;;;2.93;1.23;;;15.50;91.70;;;;;;5090226;28;21289;-69
2023/03/31 10:23:52;;;;;;;3.37;1.17;;;15.70;92.40;;;;;;5089130;28;20419;-68
2023/03/31 10:26:25;;;;;;;4.10;1.50;;;15.50;90.50;;;;;;5090322;28;20428;-69
2023/03/31 10:28:53;;;;;;;5.50;1.70;;;15.90;90.90;;;;;;5090545;28;20424;-70
2023/03/31 10:31:24;;;;;;;3.47;1.20;;;15.80;90.90;;;;;;5090154;28;20438;-70
2023/03/31 10:33:51;;;;;;;5.00;1.37;;;15.80;92.00;;;;;;5090322;28;20565;-70
2023/03/31 10:36:26;;;;;;;1.93;1.00;;;15.70;91.70;;;;;;5090000;28;20452;-70
2023/03/31 10:38:53;;;;;;;3.80;1.40;;;15.60;92.30;;;;;;5088334;28;20452;-70
2023/03/31 10:41:29;;;;;;;3.73;1.47;;;15.80;91.90;;;;;;5089911;28;20455;-69
2023/03/31 10:44:01;;;;;;;6.33;1.20;;;15.80;90.10;;;;;;5090027;28;20423;-70
2023/03/31 10:46:41;;;;;;;5.27;1.20;;;15.70;91.30;;;;;;5088190;28;20520;-70
2023/03/31 10:49:20;;;;;;;8.03;1.17;;;15.80;91.60;;;;;;5089836;28;21028;-70
2023/03/31 10:52:21;;;;;;;4.27;1.20;;;16.10;89.80;;;;;;5089615;28;20501;-69
2023/03/31 10:54:56;;;;;;;11.50;1.50;;;16.30;87.20;;;;;;5086982;28;20935;-69
2023/03/31 10:57:43;;;;;;;8.60;1.37;;;16.50;88.80;;;;;;5089456;28;20460;-69
2023/03/31 11:00:38;;;;;;;4.93;1.57;;;16.70;83.90;;;;;;5089774;28;20408;-70
2023/03/31 11:03:14;;;;;;;4.17;1.37;;;17.10;82.30;;;;;;5089457;28;20464;-69
2023/03/31 11:05:58;;;;;;;6.37;1.33;;;17.40;81.30;;;;;;5089497;28;20770;-69
2023/03/31 11:08:35;;;;;;;3.50;1.60;;;17.60;76.80;;;;;;5089234;28;20417;-70
2023/03/31 11:11:13;;;;;;;6.47;1.50;;;17.10;76.40;;;;;;5089209;28;20477;-69
2023/03/31 11:13:58;;;;;;;4.87;1.63;;;16.80;80.60;;;;;;5089127;28;20670;-69
2023/03/31 11:16:40;;;;;;;6.60;1.17;;;16.40;77.90;;;;;;5087535;28;20472;-69
2023/03/31 11:19:10;;;;;;;2.93;1.00;;;16.60;81.80;;;;;;5089119;28;20410;-70
2023/03/31 11:22:00;;;;;;;4.27;1.30;;;16.40;76.80;;;;;;5088092;28;20442;-70
2023/03/31 11:25:07;;;;;;;2.30;0.87;;;16.10;78.90;;;;;;5089162;28;20394;-69
2023/03/31 11:28:10;;;;;;;4.57;1.33;;;15.90;80.00;;;;;;5006236;28;20527;-69
2023/03/31 11:30:54;;;;;;;3.13;1.27;;;15.70;77.70;;;;;;5006282;28;21261;-69
2023/03/31 11:33:47;;;;;;;3.53;1.03;;;15.20;82.10;;;;;;5075863;28;20502;-68
2023/03/31 11:36:24;;;;;;;3.73;0.60;;;13.90;99.70;;;;;;5088904;28;20463;-69
2023/03/31 11:38:53;;;;;;;2.33;0.60;;;12.10;99.90;;;;;;5088499;28;20469;-69
2023/03/31 11:41:26;;;;;;;2.60;0.70;;;10.80;99.90;;;;;;5087248;28;20442;-69
2023/03/31 11:44:02;;;;;;;1.40;0.60;;;10.20;99.90;;;;;;5089031;28;20491;-69
2023/03/31 11:46:55;;;;;;;1.87;0.60;;;9.90;99.90;;;;;;5089124;28;20551;-69
2023/03/31 11:49:37;;;;;;;1.50;0.70;;;9.60;99.90;;;;;;5087816;28;20942;-69
2023/03/31 11:52:13;;;;;;;3.77;0.60;;;9.50;99.90;;;;;;5088852;28;20824;-69
2023/03/31 11:54:52;;;;;;;0.90;0.50;;;9.50;99.90;;;;;;5087442;28;20503;-69
2023/03/31 11:57:28;;;;;;;1.60;0.53;;;9.40;99.90;;;;;;5088641;28;20563;-69
2023/03/31 12:00:06;;;;;;;1.10;0.43;;;9.30;99.90;;;;;;5088555;28;21139;-69
2023/03/31 12:02:50;;;;;;;1.20;0.50;;;9.30;99.90;;;;;;5086906;28;20472;-68
2023/03/31 12:05:17;;;;;;;1.63;0.57;;;9.20;99.90;;;;;;5088449;28;21028;-70
2023/03/31 12:07:53;;;;;;;2.70;0.60;;;9.40;99.90;;;;;;5088566;28;20801;-68
2023/03/31 12:10:20;;;;;;;0.90;0.40;;;9.50;99.90;;;;;;5088940;28;20415;-69
2023/03/31 12:12:52;;;;;;;3.37;0.67;;;10.50;99.90;;;;;;5088632;28;20446;-68
2023/03/31 12:15:38;;;;;;;2.63;0.50;;;11.10;99.90;;;;;;5088694;28;20421;-69
2023/03/31 12:18:21;;;;;;;3.80;0.53;;;10.70;99.90;;;;;;5088745;28;20485;-69
2023/03/31 12:20:52;;;;;;;2.07;0.60;;;10.50;99.90;;;;;;5088781;28;20417;-68
2023/03/31 12:23:21;;;;;;;1.83;0.47;;;10.30;99.90;;;;;;5088914;28;20411;-68
2023/03/31 12:25:58;;;;;;;1.70;0.40;;;10.50;99.90;;;;;;5088584;28;20519;-68
2023/03/31 12:28:26;;;;;;;0.80;0.50;;;10.50;99.90;;;;;;5088319;28;20787;-68
2023/03/31 12:30:53;;;;;;;0.80;0.43;;;10.60;99.90;;;;;;5086564;28;20445;-69
2023/03/31 12:33:27;;;;;;;1.00;0.50;;;10.60;99.90;;;;;;5088039;28;20416;-69
2023/03/31 12:35:59;;;;;;;0.70;0.40;;;10.60;99.90;;;;;;5087749;28;20428;-69
2023/03/31 12:38:41;;;;;;;3.07;0.50;;;11.10;99.90;;;;;;5086274;28;20443;-69
2023/03/31 12:41:22;;;;;;;0.70;0.50;;;12.10;99.90;;;;;;5087799;28;20430;-69
2023/03/31 12:44:22;;;;;;;1.30;0.53;;;12.90;99.90;;;;;;5086137;28;20427;-69
2023/03/31 12:47:17;;;;;;;1.80;0.47;;;13.20;99.90;;;;;;5087706;28;20428;-68
2023/03/31 12:50:02;;;;;;;1.43;0.53;;;13.40;99.90;;;;;;5087507;28;20420;-69
2023/03/31 12:52:51;;;;;;;1.53;0.60;;;14.00;99.90;;;;;;5087643;28;20441;-69
2023/03/31 12:55:36;;;;;;;6.10;1.30;;;14.70;99.90;;;;;;5087509;28;21272;-69
2023/03/31 12:58:25;;;;;;;3.07;0.80;;;15.10;99.90;;;;;;5087419;28;20564;-69
2023/03/31 13:01:06;;;;;;;1.83;0.60;;;15.60;99.90;;;;;;5087515;28;20443;-69
2023/03/31 13:03:34;;;;;;;2.43;0.70;;;15.50;98.60;;;;;;5087734;28;20494;-69
2023/03/31 13:06:01;;;;;;;2.10;0.63;;;15.30;99.50;;;;;;5087971;28;20422;-68
2023/03/31 13:09:11;;;;;;;5.60;1.07;;;15.60;99.30;;;;;;5088015;28;20466;-67